sensor_id;sensor_type;location;lat;lon;timestamp;temperature;humidity
69189;DHT22;56302;52.322;5.926;2022-09-30T00:01:42;4.40;90.00
69189;DHT22;56302;52.322;5.926;2022-09-30T00:04:22;4.40;89.70
69189;DHT22;56302;52.322;5.926;2022-09-30T00:06:50;4.30;89.60
69189;DHT22;56302;52.322;5.926;2022-09-30T00:09:16;4.30;90.10
69189;DHT22;56302;52.322;5.926;2022-09-30T00:11:42;4.30;89.60
69189;DHT22;56302;52.322;5.926;2022-09-30T00:14:14;4.30;89.20
69189;DHT22;56302;52.322;5.926;2022-09-30T00:16:41;4.30;89.50
69189;DHT22;56302;52.322;5.926;2022-09-30T00:19:07;4.30;89.70
69189;DHT22;56302;52.322;5.926;2022-09-30T00:21:33;4.30;89.70
69189;DHT22;56302;52.322;5.926;2022-09-30T00:23:59;4.30;89.60
69189;DHT22;56302;52.322;5.926;2022-09-30T00:26:25;4.20;89.50
69189;DHT22;56302;52.322;5.926;2022-09-30T00:28:53;4.20;89.30
69189;DHT22;56302;52.322;5.926;2022-09-30T00:31:20;4.20;89.50
69189;DHT22;56302;52.322;5.926;2022-09-30T00:33:46;4.10;89.60
69189;DHT22;56302;52.322;5.926;2022-09-30T00:36:33;4.10;89.70
69189;DHT22;56302;52.322;5.926;2022-09-30T00:38:59;4.10;89.90
69189;DHT22;56302;52.322;5.926;2022-09-30T00:41:25;4.10;90.00
69189;DHT22;56302;52.322;5.926;2022-09-30T00:43:51;4.10;89.70
69189;DHT22;56302;52.322;5.926;2022-09-30T00:48:49;4.10;89.70
69189;DHT22;56302;52.322;5.926;2022-09-30T00:51:22;4.00;90.00
69189;DHT22;56302;52.322;5.926;2022-09-30T00:53:53;4.00;90.00
69189;DHT22;56302;52.322;5.926;2022-09-30T00:56:23;4.00;90.20
69189;DHT22;56302;52.322;5.926;2022-09-30T00:58:51;4.00;90.10
69189;DHT22;56302;52.322;5.926;2022-09-30T01:01:20;4.00;90.10
69189;DHT22;56302;52.322;5.926;2022-09-30T01:03:59;3.90;90.00
69189;DHT22;56302;52.322;5.926;2022-09-30T01:06:26;3.90;89.80
69189;DHT22;56302;52.322;5.926;2022-09-30T01:08:51;3.90;89.80
69189;DHT22;56302;52.322;5.926;2022-09-30T01:11:17;3.80;90.00
69189;DHT22;56302;52.322;5.926;2022-09-30T01:13:48;3.70;90.60
69189;DHT22;56302;52.322;5.926;2022-09-30T01:32:56;3.70;90.20
69189;DHT22;56302;52.322;5.926;2022-09-30T01:46:07;3.60;90.70
69189;DHT22;56302;52.322;5.926;2022-09-30T01:54:04;2.80;93.80
69189;DHT22;56302;52.322;5.926;2022-09-30T01:56:34;2.90;94.40
69189;DHT22;56302;52.322;5.926;2022-09-30T02:02:09;3.20;93.70
69189;DHT22;56302;52.322;5.926;2022-09-30T02:04:47;3.30;92.80
69189;DHT22;56302;52.322;5.926;2022-09-30T02:07:44;3.30;92.40
69189;DHT22;56302;52.322;5.926;2022-09-30T02:10:18;3.10;92.50
69189;DHT22;56302;52.322;5.926;2022-09-30T02:12:49;3.20;92.80
69189;DHT22;56302;52.322;5.926;2022-09-30T02:15:21;3.20;92.40
69189;DHT22;56302;52.322;5.926;2022-09-30T02:17:58;3.30;92.00
69189;DHT22;56302;52.322;5.926;2022-09-30T02:20:34;3.30;91.80
69189;DHT22;56302;52.322;5.926;2022-09-30T02:23:15;3.30;91.40
69189;DHT22;56302;52.322;5.926;2022-09-30T02:25:45;3.30;91.30
69189;DHT22;56302;52.322;5.926;2022-09-30T02:28:18;3.30;91.30
69189;DHT22;56302;52.322;5.926;2022-09-30T02:30:49;3.30;91.50
69189;DHT22;56302;52.322;5.926;2022-09-30T02:33:19;3.30;91.40
69189;DHT22;56302;52.322;5.926;2022-09-30T02:35:54;3.30;91.30
69189;DHT22;56302;52.322;5.926;2022-09-30T02:38:30;3.20;91.30
69189;DHT22;56302;52.322;5.926;2022-09-30T02:41:00;3.20;91.50
69189;DHT22;56302;52.322;5.926;2022-09-30T02:43:27;3.30;91.60
69189;DHT22;56302;52.322;5.926;2022-09-30T02:48:37;3.20;91.40
69189;DHT22;56302;52.322;5.926;2022-09-30T02:53:54;3.20;91.50
69189;DHT22;56302;52.322;5.926;2022-09-30T02:59:03;3.20;91.30
69189;DHT22;56302;52.322;5.926;2022-09-30T03:01:29;3.20;91.30
69189;DHT22;56302;52.322;5.926;2022-09-30T03:04:02;3.10;91.40
69189;DHT22;56302;52.322;5.926;2022-09-30T03:06:28;2.90;92.40
69189;DHT22;56302;52.322;5.926;2022-09-30T03:08:54;2.90;93.50
69189;DHT22;56302;52.322;5.926;2022-09-30T03:11:22;3.10;93.40
69189;DHT22;56302;52.322;5.926;2022-09-30T03:16:56;3.20;93.20
69189;DHT22;56302;52.322;5.926;2022-09-30T03:19:44;3.20;93.00
69189;DHT22;56302;52.322;5.926;2022-09-30T03:30:19;3.10;93.10
69189;DHT22;56302;52.322;5.926;2022-09-30T03:38:50;3.20;92.60
69189;DHT22;56302;52.322;5.926;2022-09-30T03:41:35;3.10;92.40
69189;DHT22;56302;52.322;5.926;2022-09-30T03:44:21;3.00;92.80
69189;DHT22;56302;52.322;5.926;2022-09-30T03:46:51;2.80;93.10
69189;DHT22;56302;52.322;5.926;2022-09-30T03:49:24;2.90;93.30
69189;DHT22;56302;52.322;5.926;2022-09-30T03:51:52;2.80;93.30
69189;DHT22;56302;52.322;5.926;2022-09-30T03:54:18;2.90;93.30
69189;DHT22;56302;52.322;5.926;2022-09-30T03:56:44;2.90;93.10
69189;DHT22;56302;52.322;5.926;2022-09-30T03:59:11;3.00;92.80
69189;DHT22;56302;52.322;5.926;2022-09-30T04:01:37;3.00;92.70
69189;DHT22;56302;52.322;5.926;2022-09-30T04:04:04;3.00;92.40
69189;DHT22;56302;52.322;5.926;2022-09-30T04:06:29;3.00;92.30
69189;DHT22;56302;52.322;5.926;2022-09-30T04:08:55;3.00;92.20
69189;DHT22;56302;52.322;5.926;2022-09-30T04:11:20;3.00;92.30
69189;DHT22;56302;52.322;5.926;2022-09-30T04:13:46;2.90;92.30
69189;DHT22;56302;52.322;5.926;2022-09-30T04:16:12;3.00;92.30
69189;DHT22;56302;52.322;5.926;2022-09-30T04:18:38;2.90;92.40
69189;DHT22;56302;52.322;5.926;2022-09-30T04:21:05;2.90;92.40
69189;DHT22;56302;52.322;5.926;2022-09-30T04:23:36;2.90;92.40
69189;DHT22;56302;52.322;5.926;2022-09-30T04:26:03;2.90;92.40
69189;DHT22;56302;52.322;5.926;2022-09-30T04:28:30;2.90;92.30
69189;DHT22;56302;52.322;5.926;2022-09-30T04:31:01;2.80;92.10
69189;DHT22;56302;52.322;5.926;2022-09-30T04:33:27;2.80;91.90
69189;DHT22;56302;52.322;5.926;2022-09-30T04:35:54;2.80;91.80
69189;DHT22;56302;52.322;5.926;2022-09-30T04:38:21;2.80;91.80
69189;DHT22;56302;52.322;5.926;2022-09-30T04:40:46;2.80;92.00
69189;DHT22;56302;52.322;5.926;2022-09-30T04:43:14;2.80;92.10
69189;DHT22;56302;52.322;5.926;2022-09-30T04:45:42;2.80;92.00
69189;DHT22;56302;52.322;5.926;2022-09-30T04:48:09;2.80;92.00
69189;DHT22;56302;52.322;5.926;2022-09-30T04:50:34;2.70;91.90
69189;DHT22;56302;52.322;5.926;2022-09-30T04:53:00;2.70;92.00
69189;DHT22;56302;52.322;5.926;2022-09-30T04:55:26;2.70;92.10
69189;DHT22;56302;52.322;5.926;2022-09-30T04:57:51;2.70;92.20
69189;DHT22;56302;52.322;5.926;2022-09-30T05:00:17;2.70;92.20
69189;DHT22;56302;52.322;5.926;2022-09-30T05:02:43;2.60;92.20
69189;DHT22;56302;52.322;5.926;2022-09-30T05:05:09;2.50;92.50
69189;DHT22;56302;52.322;5.926;2022-09-30T05:07:34;2.20;93.10
69189;DHT22;56302;52.322;5.926;2022-09-30T05:10:00;2.20;94.10
69189;DHT22;56302;52.322;5.926;2022-09-30T05:12:26;2.30;94.50
69189;DHT22;56302;52.322;5.926;2022-09-30T05:14:51;2.40;94.30
69189;DHT22;56302;52.322;5.926;2022-09-30T05:17:17;2.50;93.90
69189;DHT22;56302;52.322;5.926;2022-09-30T05:19:42;2.50;93.60
69189;DHT22;56302;52.322;5.926;2022-09-30T05:22:08;2.60;93.50
69189;DHT22;56302;52.322;5.926;2022-09-30T05:24:33;2.50;93.30
69189;DHT22;56302;52.322;5.926;2022-09-30T05:26:59;2.50;92.90
69189;DHT22;56302;52.322;5.926;2022-09-30T05:29:25;2.50;92.70
69189;DHT22;56302;52.322;5.926;2022-09-30T05:31:50;2.20;93.40
69189;DHT22;56302;52.322;5.926;2022-09-30T05:34:16;2.20;94.10
69189;DHT22;56302;52.322;5.926;2022-09-30T05:36:42;2.40;94.00
69189;DHT22;56302;52.322;5.926;2022-09-30T05:39:11;2.40;94.00
69189;DHT22;56302;52.322;5.926;2022-09-30T05:41:37;2.50;93.90
69189;DHT22;56302;52.322;5.926;2022-09-30T05:44:03;2.50;93.50
69189;DHT22;56302;52.322;5.926;2022-09-30T05:46:29;2.50;93.30
69189;DHT22;56302;52.322;5.926;2022-09-30T05:48:54;2.50;93.20
69189;DHT22;56302;52.322;5.926;2022-09-30T05:51:20;2.50;93.20
69189;DHT22;56302;52.322;5.926;2022-09-30T05:53:46;2.40;93.30
69189;DHT22;56302;52.322;5.926;2022-09-30T05:56:12;2.50;93.30
69189;DHT22;56302;52.322;5.926;2022-09-30T05:58:38;2.50;93.30
69189;DHT22;56302;52.322;5.926;2022-09-30T06:01:09;2.50;93.40
69189;DHT22;56302;52.322;5.926;2022-09-30T06:03:35;2.50;93.30
69189;DHT22;56302;52.322;5.926;2022-09-30T06:06:03;2.50;93.30
69189;DHT22;56302;52.322;5.926;2022-09-30T06:08:29;2.50;93.60
69189;DHT22;56302;52.322;5.926;2022-09-30T06:10:55;2.50;93.60
69189;DHT22;56302;52.322;5.926;2022-09-30T06:13:23;2.60;93.50
69189;DHT22;56302;52.322;5.926;2022-09-30T06:16:00;2.60;93.50
69189;DHT22;56302;52.322;5.926;2022-09-30T06:18:27;2.60;93.80
69189;DHT22;56302;52.322;5.926;2022-09-30T06:21:00;2.60;93.80
69189;DHT22;56302;52.322;5.926;2022-09-30T06:23:27;2.70;93.80
69189;DHT22;56302;52.322;5.926;2022-09-30T06:25:54;2.70;94.00
69189;DHT22;56302;52.322;5.926;2022-09-30T06:28:20;2.80;94.00
69189;DHT22;56302;52.322;5.926;2022-09-30T06:30:47;2.80;94.10
69189;DHT22;56302;52.322;5.926;2022-09-30T06:33:14;2.90;94.00
69189;DHT22;56302;52.322;5.926;2022-09-30T06:35:40;2.90;94.00
69189;DHT22;56302;52.322;5.926;2022-09-30T06:38:07;2.90;94.10
69189;DHT22;56302;52.322;5.926;2022-09-30T06:40:33;3.00;94.10
69189;DHT22;56302;52.322;5.926;2022-09-30T06:42:59;3.00;94.00
69189;DHT22;56302;52.322;5.926;2022-09-30T06:45:25;3.10;93.90
69189;DHT22;56302;52.322;5.926;2022-09-30T06:47:58;3.20;93.90
69189;DHT22;56302;52.322;5.926;2022-09-30T06:50:24;3.20;94.30
69189;DHT22;56302;52.322;5.926;2022-09-30T06:52:50;3.30;94.40
69189;DHT22;56302;52.322;5.926;2022-09-30T06:55:17;3.40;94.30
69189;DHT22;56302;52.322;5.926;2022-09-30T06:57:44;3.50;94.50
69189;DHT22;56302;52.322;5.926;2022-09-30T07:00:12;3.60;94.60
69189;DHT22;56302;52.322;5.926;2022-09-30T07:02:38;3.80;94.70
69189;DHT22;56302;52.322;5.926;2022-09-30T07:05:04;3.90;94.80
69189;DHT22;56302;52.322;5.926;2022-09-30T07:07:30;4.10;94.90
69189;DHT22;56302;52.322;5.926;2022-09-30T07:09:59;4.30;94.70
69189;DHT22;56302;52.322;5.926;2022-09-30T07:12:25;4.50;94.30
69189;DHT22;56302;52.322;5.926;2022-09-30T07:14:51;4.80;94.80
69189;DHT22;56302;52.322;5.926;2022-09-30T07:17:17;5.20;94.90
69189;DHT22;56302;52.322;5.926;2022-09-30T07:19:42;5.60;95.00
69189;DHT22;56302;52.322;5.926;2022-09-30T07:22:08;5.90;94.00
69189;DHT22;56302;52.322;5.926;2022-09-30T07:24:53;6.10;93.70
69189;DHT22;56302;52.322;5.926;2022-09-30T07:27:19;6.40;92.90
69189;DHT22;56302;52.322;5.926;2022-09-30T07:29:45;6.40;92.00
69189;DHT22;56302;52.322;5.926;2022-09-30T07:32:12;6.50;91.30
69189;DHT22;56302;52.322;5.926;2022-09-30T07:34:38;6.70;91.80
69189;DHT22;56302;52.322;5.926;2022-09-30T07:37:11;6.90;91.70
69189;DHT22;56302;52.322;5.926;2022-09-30T07:39:39;7.10;92.10
69189;DHT22;56302;52.322;5.926;2022-09-30T07:42:04;7.50;93.10
69189;DHT22;56302;52.322;5.926;2022-09-30T07:44:30;7.90;93.40
69189;DHT22;56302;52.322;5.926;2022-09-30T07:46:56;8.40;93.10
69189;DHT22;56302;52.322;5.926;2022-09-30T07:49:22;8.90;93.10
69189;DHT22;56302;52.322;5.926;2022-09-30T07:51:54;9.40;92.60
69189;DHT22;56302;52.322;5.926;2022-09-30T07:54:23;9.80;92.20
69189;DHT22;56302;52.322;5.926;2022-09-30T07:56:50;10.10;92.30
69189;DHT22;56302;52.322;5.926;2022-09-30T07:59:17;10.60;91.20
69189;DHT22;56302;52.322;5.926;2022-09-30T08:01:43;11.00;89.30
69189;DHT22;56302;52.322;5.926;2022-09-30T08:04:10;11.30;88.70
69189;DHT22;56302;52.322;5.926;2022-09-30T08:06:38;11.60;86.90
69189;DHT22;56302;52.322;5.926;2022-09-30T08:09:04;11.90;87.80
69189;DHT22;56302;52.322;5.926;2022-09-30T08:11:32;12.20;87.90
69189;DHT22;56302;52.322;5.926;2022-09-30T08:13:58;12.40;85.80
69189;DHT22;56302;52.322;5.926;2022-09-30T08:16:24;12.80;85.20
69189;DHT22;56302;52.322;5.926;2022-09-30T08:19:00;13.10;83.40
69189;DHT22;56302;52.322;5.926;2022-09-30T08:21:27;13.30;82.90
69189;DHT22;56302;52.322;5.926;2022-09-30T08:23:53;13.60;83.00
69189;DHT22;56302;52.322;5.926;2022-09-30T08:26:19;13.70;79.00
69189;DHT22;56302;52.322;5.926;2022-09-30T08:28:45;13.90;80.90
69189;DHT22;56302;52.322;5.926;2022-09-30T08:31:17;14.00;77.90
69189;DHT22;56302;52.322;5.926;2022-09-30T08:33:43;14.10;80.00
69189;DHT22;56302;52.322;5.926;2022-09-30T08:36:21;14.10;76.70
69189;DHT22;56302;52.322;5.926;2022-09-30T08:38:47;14.20;78.00
69189;DHT22;56302;52.322;5.926;2022-09-30T08:41:34;14.30;78.20
69189;DHT22;56302;52.322;5.926;2022-09-30T08:46:59;14.30;77.30
69189;DHT22;56302;52.322;5.926;2022-09-30T08:49:30;14.40;75.00
69189;DHT22;56302;52.322;5.926;2022-09-30T08:52:00;14.70;76.70
69189;DHT22;56302;52.322;5.926;2022-09-30T08:54:31;15.00;75.70
69189;DHT22;56302;52.322;5.926;2022-09-30T08:56:59;15.20;71.20
69189;DHT22;56302;52.322;5.926;2022-09-30T08:59:37;15.10;75.40
69189;DHT22;56302;52.322;5.926;2022-09-30T09:02:20;15.10;72.30
69189;DHT22;56302;52.322;5.926;2022-09-30T09:04:48;14.90;72.60
69189;DHT22;56302;52.322;5.926;2022-09-30T09:10:24;15.10;74.60
69189;DHT22;56302;52.322;5.926;2022-09-30T09:16:04;14.90;73.80
69189;DHT22;56302;52.322;5.926;2022-09-30T09:23:48;14.90;74.00
69189;DHT22;56302;52.322;5.926;2022-09-30T09:26:15;14.80;73.20
69189;DHT22;56302;52.322;5.926;2022-09-30T09:31:24;14.80;71.70
69189;DHT22;56302;52.322;5.926;2022-09-30T09:33:50;14.80;73.00
69189;DHT22;56302;52.322;5.926;2022-09-30T09:42:32;14.60;73.10
69189;DHT22;56302;52.322;5.926;2022-09-30T09:45:09;14.60;73.00
69189;DHT22;56302;52.322;5.926;2022-09-30T09:47:36;14.60;72.00
69189;DHT22;56302;52.322;5.926;2022-09-30T09:50:03;14.60;70.70
69189;DHT22;56302;52.322;5.926;2022-09-30T09:52:50;14.60;70.80
69189;DHT22;56302;52.322;5.926;2022-09-30T09:55:21;14.70;71.90
69189;DHT22;56302;52.322;5.926;2022-09-30T09:58:02;14.80;71.80
69189;DHT22;56302;52.322;5.926;2022-09-30T10:00:28;14.90;72.90
69189;DHT22;56302;52.322;5.926;2022-09-30T10:03:17;14.90;70.80
69189;DHT22;56302;52.322;5.926;2022-09-30T10:08:24;15.10;70.10
69189;DHT22;56302;52.322;5.926;2022-09-30T10:10:52;15.20;68.90
69189;DHT22;56302;52.322;5.926;2022-09-30T10:13:23;15.30;67.00
69189;DHT22;56302;52.322;5.926;2022-09-30T10:15:52;15.30;67.40
69189;DHT22;56302;52.322;5.926;2022-09-30T10:18:23;15.50;67.80
69189;DHT22;56302;52.322;5.926;2022-09-30T10:20:56;15.60;66.90
69189;DHT22;56302;52.322;5.926;2022-09-30T10:23:35;15.70;64.60
69189;DHT22;56302;52.322;5.926;2022-09-30T10:26:19;15.90;68.40
69189;DHT22;56302;52.322;5.926;2022-09-30T10:28:57;16.00;66.20
69189;DHT22;56302;52.322;5.926;2022-09-30T10:31:24;16.00;66.50
69189;DHT22;56302;52.322;5.926;2022-09-30T10:36:21;16.60;64.60
69189;DHT22;56302;52.322;5.926;2022-09-30T10:41:29;16.40;62.40
69189;DHT22;56302;52.322;5.926;2022-09-30T10:43:58;16.60;63.20
69189;DHT22;56302;52.322;5.926;2022-09-30T10:46:34;16.80;62.40
69189;DHT22;56302;52.322;5.926;2022-09-30T10:49:08;16.90;61.90
69189;DHT22;56302;52.322;5.926;2022-09-30T10:51:34;16.90;60.80
69189;DHT22;56302;52.322;5.926;2022-09-30T10:54:02;16.90;59.90
69189;DHT22;56302;52.322;5.926;2022-09-30T10:56:41;17.00;62.10
69189;DHT22;56302;52.322;5.926;2022-09-30T10:59:32;17.20;61.30
69189;DHT22;56302;52.322;5.926;2022-09-30T11:02:04;17.20;59.10
69189;DHT22;56302;52.322;5.926;2022-09-30T11:04:41;17.10;58.00
69189;DHT22;56302;52.322;5.926;2022-09-30T11:07:14;17.20;60.50
69189;DHT22;56302;52.322;5.926;2022-09-30T11:09:51;17.30;59.00
69189;DHT22;56302;52.322;5.926;2022-09-30T11:12:39;17.30;58.70
69189;DHT22;56302;52.322;5.926;2022-09-30T11:15:17;17.20;58.60
69189;DHT22;56302;52.322;5.926;2022-09-30T11:17:49;17.40;60.10
69189;DHT22;56302;52.322;5.926;2022-09-30T11:20:40;17.40;58.30
69189;DHT22;56302;52.322;5.926;2022-09-30T11:23:22;17.30;56.10
69189;DHT22;56302;52.322;5.926;2022-09-30T11:25:52;17.50;58.70
69189;DHT22;56302;52.322;5.926;2022-09-30T11:31:36;17.90;54.10
69189;DHT22;56302;52.322;5.926;2022-09-30T11:36:51;18.30;57.30
69189;DHT22;56302;52.322;5.926;2022-09-30T11:42:10;18.10;55.50
69189;DHT22;56302;52.322;5.926;2022-09-30T11:44:40;17.90;56.40
69189;DHT22;56302;52.322;5.926;2022-09-30T11:47:31;18.00;55.80
69189;DHT22;56302;52.322;5.926;2022-09-30T11:50:29;17.70;55.80
69189;DHT22;56302;52.322;5.926;2022-09-30T11:58:27;17.90;57.10
69189;DHT22;56302;52.322;5.926;2022-09-30T12:00:59;17.80;56.70
69189;DHT22;56302;52.322;5.926;2022-09-30T12:03:35;17.40;56.70
69189;DHT22;56302;52.322;5.926;2022-09-30T12:06:09;17.30;57.70
69189;DHT22;56302;52.322;5.926;2022-09-30T12:08:52;17.30;58.80
69189;DHT22;56302;52.322;5.926;2022-09-30T12:11:38;17.10;58.10
69189;DHT22;56302;52.322;5.926;2022-09-30T12:14:13;16.90;57.40
69189;DHT22;56302;52.322;5.926;2022-09-30T12:16:41;16.60;56.70
69189;DHT22;56302;52.322;5.926;2022-09-30T12:19:12;16.40;59.70
69189;DHT22;56302;52.322;5.926;2022-09-30T12:21:46;16.20;60.10
69189;DHT22;56302;52.322;5.926;2022-09-30T12:24:28;16.20;60.70
69189;DHT22;56302;52.322;5.926;2022-09-30T12:26:55;16.40;60.00
69189;DHT22;56302;52.322;5.926;2022-09-30T12:29:26;16.30;59.60
69189;DHT22;56302;52.322;5.926;2022-09-30T12:32:29;16.30;61.70
69189;DHT22;56302;52.322;5.926;2022-09-30T12:43:30;16.40;61.50
69189;DHT22;56302;52.322;5.926;2022-09-30T12:48:42;16.30;61.00
69189;DHT22;56302;52.322;5.926;2022-09-30T12:51:09;16.10;61.00
69189;DHT22;56302;52.322;5.926;2022-09-30T12:53:37;16.00;61.90
69189;DHT22;56302;52.322;5.926;2022-09-30T12:56:11;16.10;61.90
69189;DHT22;56302;52.322;5.926;2022-09-30T12:58:46;16.20;61.50
69189;DHT22;56302;52.322;5.926;2022-09-30T13:01:27;16.20;61.90
69189;DHT22;56302;52.322;5.926;2022-09-30T13:06:27;16.10;62.00
69189;DHT22;56302;52.322;5.926;2022-09-30T13:09:19;16.00;62.20
69189;DHT22;56302;52.322;5.926;2022-09-30T13:14:37;16.00;62.70
69189;DHT22;56302;52.322;5.926;2022-09-30T13:19:46;16.00;63.40
69189;DHT22;56302;52.322;5.926;2022-09-30T13:35:36;16.00;64.10
69189;DHT22;56302;52.322;5.926;2022-09-30T13:40:50;16.20;63.80
69189;DHT22;56302;52.322;5.926;2022-09-30T13:43:23;16.00;63.90
69189;DHT22;56302;52.322;5.926;2022-09-30T13:45:52;15.80;64.50
69189;DHT22;56302;52.322;5.926;2022-09-30T13:48:27;15.80;64.70
69189;DHT22;56302;52.322;5.926;2022-09-30T13:50:54;15.70;64.30
69189;DHT22;56302;52.322;5.926;2022-09-30T13:55:58;15.60;64.70
69189;DHT22;56302;52.322;5.926;2022-09-30T13:58:49;15.60;65.70
69189;DHT22;56302;52.322;5.926;2022-09-30T14:07:00;15.60;65.40
69189;DHT22;56302;52.322;5.926;2022-09-30T14:12:26;15.60;65.70
69189;DHT22;56302;52.322;5.926;2022-09-30T14:15:38;15.70;65.50
69189;DHT22;56302;52.322;5.926;2022-09-30T14:18:31;15.90;64.10
69189;DHT22;56302;52.322;5.926;2022-09-30T14:21:15;15.90;64.50
69189;DHT22;56302;52.322;5.926;2022-09-30T14:23:53;15.80;64.50
69189;DHT22;56302;52.322;5.926;2022-09-30T14:26:42;15.70;66.30
69189;DHT22;56302;52.322;5.926;2022-09-30T14:31:49;15.60;66.20
69189;DHT22;56302;52.322;5.926;2022-09-30T14:34:17;15.70;66.30
69189;DHT22;56302;52.322;5.926;2022-09-30T14:36:44;15.80;66.00
69189;DHT22;56302;52.322;5.926;2022-09-30T14:39:15;15.90;64.80
69189;DHT22;56302;52.322;5.926;2022-09-30T14:41:52;15.90;64.50
69189;DHT22;56302;52.322;5.926;2022-09-30T14:44:20;16.00;66.00
69189;DHT22;56302;52.322;5.926;2022-09-30T14:46:48;16.00;66.20
69189;DHT22;56302;52.322;5.926;2022-09-30T14:49:25;15.90;65.60
69189;DHT22;56302;52.322;5.926;2022-09-30T14:51:57;15.90;65.20
69189;DHT22;56302;52.322;5.926;2022-09-30T14:54:26;15.90;65.60
69189;DHT22;56302;52.322;5.926;2022-09-30T14:56:54;15.80;65.40
69189;DHT22;56302;52.322;5.926;2022-09-30T14:59:23;15.80;66.00
69189;DHT22;56302;52.322;5.926;2022-09-30T15:01:54;15.70;66.00
69189;DHT22;56302;52.322;5.926;2022-09-30T15:04:34;15.60;66.10
69189;DHT22;56302;52.322;5.926;2022-09-30T15:07:03;15.50;66.70
69189;DHT22;56302;52.322;5.926;2022-09-30T15:09:35;15.40;67.00
69189;DHT22;56302;52.322;5.926;2022-09-30T15:12:14;15.30;68.70
69189;DHT22;56302;52.322;5.926;2022-09-30T15:14:51;15.30;68.40
69189;DHT22;56302;52.322;5.926;2022-09-30T15:17:20;15.30;68.40
69189;DHT22;56302;52.322;5.926;2022-09-30T15:19:46;15.30;68.80
69189;DHT22;56302;52.322;5.926;2022-09-30T15:22:13;15.30;67.90
69189;DHT22;56302;52.322;5.926;2022-09-30T15:24:39;15.30;67.90
69189;DHT22;56302;52.322;5.926;2022-09-30T15:27:06;15.30;67.30
69189;DHT22;56302;52.322;5.926;2022-09-30T15:32:27;15.40;67.70
69189;DHT22;56302;52.322;5.926;2022-09-30T15:34:54;15.50;67.10
69189;DHT22;56302;52.322;5.926;2022-09-30T15:37:24;15.50;66.50
69189;DHT22;56302;52.322;5.926;2022-09-30T15:39:51;15.60;67.50
69189;DHT22;56302;52.322;5.926;2022-09-30T15:42:38;15.60;68.00
69189;DHT22;56302;52.322;5.926;2022-09-30T15:48:46;15.50;67.10
69189;DHT22;56302;52.322;5.926;2022-09-30T15:50:49;15.40;68.30
69189;DHT22;56302;52.322;5.926;2022-09-30T15:53:23;15.40;68.40
69189;DHT22;56302;52.322;5.926;2022-09-30T15:55:49;15.30;68.80
69189;DHT22;56302;52.322;5.926;2022-09-30T15:58:38;15.20;68.70
69189;DHT22;56302;52.322;5.926;2022-09-30T16:01:33;15.20;68.70
69189;DHT22;56302;52.322;5.926;2022-09-30T16:04:24;15.10;67.90
69189;DHT22;56302;52.322;5.926;2022-09-30T16:06:56;15.10;68.70
69189;DHT22;56302;52.322;5.926;2022-09-30T16:09:37;15.00;69.60
69189;DHT22;56302;52.322;5.926;2022-09-30T16:12:31;15.00;69.10
69189;DHT22;56302;52.322;5.926;2022-09-30T16:15:05;14.90;69.20
69189;DHT22;56302;52.322;5.926;2022-09-30T16:17:36;14.90;69.30
69189;DHT22;56302;52.322;5.926;2022-09-30T16:20:22;14.90;69.50
69189;DHT22;56302;52.322;5.926;2022-09-30T16:22:50;14.90;70.60
69189;DHT22;56302;52.322;5.926;2022-09-30T16:25:30;14.80;71.10
69189;DHT22;56302;52.322;5.926;2022-09-30T16:28:09;14.70;72.00
69189;DHT22;56302;52.322;5.926;2022-09-30T16:30:40;14.60;72.30
69189;DHT22;56302;52.322;5.926;2022-09-30T16:33:06;14.50;72.80
69189;DHT22;56302;52.322;5.926;2022-09-30T16:35:32;14.40;72.50
69189;DHT22;56302;52.322;5.926;2022-09-30T16:38:00;14.40;72.90
69189;DHT22;56302;52.322;5.926;2022-09-30T16:40:28;14.20;73.30
69189;DHT22;56302;52.322;5.926;2022-09-30T16:42:54;14.20;73.60
69189;DHT22;56302;52.322;5.926;2022-09-30T16:45:20;14.10;73.40
69189;DHT22;56302;52.322;5.926;2022-09-30T16:47:46;14.00;73.80
69189;DHT22;56302;52.322;5.926;2022-09-30T16:52:55;13.90;74.10
69189;DHT22;56302;52.322;5.926;2022-09-30T16:55:22;13.90;74.60
69189;DHT22;56302;52.322;5.926;2022-09-30T16:57:47;13.80;74.90
69189;DHT22;56302;52.322;5.926;2022-09-30T17:00:14;13.70;75.00
69189;DHT22;56302;52.322;5.926;2022-09-30T17:02:47;13.70;75.30
69189;DHT22;56302;52.322;5.926;2022-09-30T17:05:18;13.60;75.60
69189;DHT22;56302;52.322;5.926;2022-09-30T17:07:46;13.50;75.80
69189;DHT22;56302;52.322;5.926;2022-09-30T17:12:45;13.40;75.90
69189;DHT22;56302;52.322;5.926;2022-09-30T17:15:11;13.40;75.80
69189;DHT22;56302;52.322;5.926;2022-09-30T17:17:37;13.30;76.10
69189;DHT22;56302;52.322;5.926;2022-09-30T17:20:03;13.20;76.30
69189;DHT22;56302;52.322;5.926;2022-09-30T17:22:28;13.10;76.40
69189;DHT22;56302;52.322;5.926;2022-09-30T17:24:54;13.10;76.30
69189;DHT22;56302;52.322;5.926;2022-09-30T17:27:19;13.00;76.40
69189;DHT22;56302;52.322;5.926;2022-09-30T17:29:45;13.00;76.80
69189;DHT22;56302;52.322;5.926;2022-09-30T17:32:10;12.90;77.10
69189;DHT22;56302;52.322;5.926;2022-09-30T17:34:36;12.80;77.30
69189;DHT22;56302;52.322;5.926;2022-09-30T17:37:01;12.80;77.10
69189;DHT22;56302;52.322;5.926;2022-09-30T17:39:27;12.70;77.40
69189;DHT22;56302;52.322;5.926;2022-09-30T17:41:52;12.60;77.60
69189;DHT22;56302;52.322;5.926;2022-09-30T17:44:36;12.60;77.50
69189;DHT22;56302;52.322;5.926;2022-09-30T17:47:03;12.60;77.60
69189;DHT22;56302;52.322;5.926;2022-09-30T17:49:34;12.60;77.40
69189;DHT22;56302;52.322;5.926;2022-09-30T17:52:00;12.50;77.90
69189;DHT22;56302;52.322;5.926;2022-09-30T17:54:26;12.50;77.80
69189;DHT22;56302;52.322;5.926;2022-09-30T17:56:52;12.50;77.20
69189;DHT22;56302;52.322;5.926;2022-09-30T17:59:18;12.50;77.50
69189;DHT22;56302;52.322;5.926;2022-09-30T18:01:48;12.40;77.70
69189;DHT22;56302;52.322;5.926;2022-09-30T18:04:15;12.40;77.70
69189;DHT22;56302;52.322;5.926;2022-09-30T18:06:41;12.20;78.10
69189;DHT22;56302;52.322;5.926;2022-09-30T18:09:07;12.20;78.50
69189;DHT22;56302;52.322;5.926;2022-09-30T18:11:32;12.10;78.50
69189;DHT22;56302;52.322;5.926;2022-09-30T18:13:58;12.00;78.60
69189;DHT22;56302;52.322;5.926;2022-09-30T18:16:25;12.00;78.70
69189;DHT22;56302;52.322;5.926;2022-09-30T18:18:57;12.00;78.60
69189;DHT22;56302;52.322;5.926;2022-09-30T18:21:23;12.00;78.60
69189;DHT22;56302;52.322;5.926;2022-09-30T18:23:52;11.90;78.60
69189;DHT22;56302;52.322;5.926;2022-09-30T18:26:18;11.80;78.80
69189;DHT22;56302;52.322;5.926;2022-09-30T18:28:44;11.80;79.00
69189;DHT22;56302;52.322;5.926;2022-09-30T18:31:10;11.80;79.00
69189;DHT22;56302;52.322;5.926;2022-09-30T18:33:42;11.70;79.10
69189;DHT22;56302;52.322;5.926;2022-09-30T18:36:08;11.70;79.10
69189;DHT22;56302;52.322;5.926;2022-09-30T18:38:34;11.60;79.10
69189;DHT22;56302;52.322;5.926;2022-09-30T18:40:59;11.60;79.30
69189;DHT22;56302;52.322;5.926;2022-09-30T18:43:25;11.60;79.10
69189;DHT22;56302;52.322;5.926;2022-09-30T18:45:53;11.60;79.30
69189;DHT22;56302;52.322;5.926;2022-09-30T18:48:21;11.50;79.30